Time;durP1;ratioP1;P1;durP2;ratioP2;P2;SDS_P1;SDS_P2;PMS_P1;PMS_P2;Temp;Humidity;BMP_temperature;BMP_pressure;BME280_temperature;BME280_humidity;BME280_pressure;Samples;Min_cycle;Max_cycle;Signal;HPM_P1;HPM_P2
2022/08/20 00:01:06;;;;;;;9.27;8.30;;;;;;;22.89;75.13;100616.50;4971443;28;102172;-55
2022/08/20 00:03:37;;;;;;;8.97;7.07;;;;;;;22.88;74.89;100609.34;4967907;28;102480;-55
2022/08/20 00:06:07;;;;;;;9.98;7.90;;;;;;;22.89;75.06;100613.72;4959106;28;102508;-55
2022/08/20 00:08:35;;;;;;;9.60;7.72;;;;;;;22.88;75.12;100615.69;4974377;28;103931;-55
2022/08/20 00:11:08;;;;;;;8.90;7.72;;;;;;;22.89;75.19;100610.94;4978651;28;102695;-55
2022/08/20 00:13:37;;;;;;;9.00;8.25;;;;;;;22.88;75.14;100614.88;4976916;28;102461;-55
2022/08/20 00:16:05;;;;;;;10.35;7.88;;;;;;;22.88;75.29;100614.88;4978954;28;102197;-55
2022/08/20 00:18:35;;;;;;;9.40;7.72;;;;;;;22.88;75.09;100620.44;4977317;28;103923;-55
2022/08/20 00:21:05;;;;;;;11.35;9.18;;;;;;;22.88;75.10;100620.44;4965397;28;102295;-57
2022/08/20 00:23:32;;;;;;;9.10;8.30;;;;;;;22.88;75.13;100621.22;4958105;28;102709;-55
2022/08/20 00:25:58;;;;;;;9.55;8.43;;;;;;;22.88;75.11;100614.88;4959894;28;102188;-55
2022/08/20 00:28:26;;;;;;;10.02;8.75;;;;;;;22.87;75.11;100607.72;4957557;28;105053;-55
2022/08/20 00:30:53;;;;;;;9.35;8.27;;;;;;;22.87;75.22;100599.41;4968266;28;102427;-55
2022/08/20 00:33:21;;;;;;;9.32;8.05;;;;;;;22.87;75.18;100607.72;4971816;28;102398;-55
2022/08/20 00:35:49;;;;;;;;;;;;;;;22.87;75.17;100608.53;4960063;28;102217;-56
2022/08/20 00:38:15;;;;;;;9.13;8.27;;;;;;;22.88;75.16;100620.44;4979410;28;103826;-55
2022/08/20 00:40:45;;;;;;;10.95;8.00;;;;;;;22.87;75.27;100629.94;4976864;28;102068;-55
2022/08/20 00:43:33;;;;;;;9.70;8.57;;;;;;;22.87;75.15;100629.94;4959287;28;102119;-56
2022/08/20 00:46:03;;;;;;;8.82;7.93;;;;;;;22.87;75.13;100624.38;4959664;28;102062;-55
2022/08/20 00:48:32;;;;;;;9.38;8.48;;;;;;;22.87;75.11;100630.72;4977430;28;107233;-55
2022/08/20 00:51:01;;;;;;;;;;;;;;;22.87;75.10;100635.47;4965474;28;102205;-55
2022/08/20 00:53:28;;;;;;;9.40;8.57;;;;;;;22.87;75.10;100627.16;4966024;28;102028;-55
2022/08/20 00:55:55;;;;;;;9.68;8.50;;;;;;;22.86;74.98;100631.06;4977852;28;102214;-55
2022/08/20 00:58:22;;;;;;;10.55;9.60;;;;;;;22.86;75.04;100637.41;4974520;28;103957;-55
2022/08/20 01:00:50;;;;;;;9.73;8.82;;;;;;;22.87;75.20;100647.38;4973981;28;102131;-55
2022/08/20 01:03:19;;;;;;;8.95;8.15;;;;;;;22.87;75.23;100652.13;4976519;28;102229;-55
2022/08/20 01:05:47;;;;;;;;;;;;;;;22.87;75.15;100650.16;4979057;28;102163;-55
2022/08/20 01:08:15;;;;;;;10.37;8.27;;;;;;;22.87;75.21;100641.03;4963061;28;103779;-55
2022/08/20 01:10:44;;;;;;;9.13;8.15;;;;;;;22.86;75.14;100637.41;4958574;28;102445;-55
2022/08/20 01:13:15;;;;;;;8.45;7.63;;;;;;;22.86;75.04;100642.16;4964878;28;102270;-55
2022/08/20 01:15:44;;;;;;;10.57;9.27;;;;;;;22.86;75.12;100639.41;4960429;28;102377;-55
2022/08/20 01:18:15;;;;;;;9.57;8.77;;;;;;;22.87;75.32;100641.03;4957338;28;104022;-55
2022/08/20 01:20:46;;;;;;;12.10;8.85;;;;;;;22.86;75.25;100651.28;4958167;28;102209;-55
2022/08/20 01:23:33;;;;;;;9.00;8.27;;;;;;;22.86;75.24;100647.72;4975396;28;102256;-55
2022/08/20 01:26:05;;;;;;;10.38;9.27;;;;;;;22.87;75.02;100643.81;4978589;28;102328;-55
2022/08/20 01:28:37;;;;;;;8.63;7.78;;;;;;;22.85;75.21;100644.16;4975509;28;103891;-55
2022/08/20 01:31:05;;;;;;;10.52;8.55;;;;;;;22.86;75.22;100653.28;4977364;28;102232;-56
2022/08/20 01:33:33;;;;;;;10.32;8.63;;;;;;;22.86;75.12;100651.28;4972021;28;102496;-55
2022/08/20 01:35:59;;;;;;;9.50;8.48;;;;;;;22.86;75.13;100636.63;4958737;28;102141;-55
2022/08/20 01:38:27;;;;;;;8.80;8.00;;;;;;;22.86;75.23;100639.41;4957362;28;104023;-55
2022/08/20 01:41:25;;;;;;;9.05;8.10;;;;;;;22.85;75.03;100635.81;4961142;28;102471;-55
2022/08/20 01:43:57;;;;;;;11.38;7.85;;;;;;;22.85;75.30;100633.03;4924893;28;102296;-56
2022/08/20 01:46:26;;;;;;;8.93;8.10;;;;;;;22.84;75.27;100631.44;4978045;28;102581;-55
2022/08/20 01:48:54;;;;;;;8.60;7.80;;;;;;;22.86;74.89;100633.84;4976489;28;104062;-55
2022/08/20 01:51:26;;;;;;;9.65;7.93;;;;;;;22.85;75.49;100632.25;4977546;28;101960;-55
2022/08/20 01:53:54;;;;;;;8.68;7.75;;;;;;;22.86;75.18;100639.41;4962528;28;102001;-55
2022/08/20 01:56:24;;;;;;;9.07;8.15;;;;;;;22.85;75.38;100626.69;4978476;28;102372;-55
2022/08/20 01:58:55;;;;;;;8.50;7.15;;;;;;;22.85;75.20;100626.69;4969039;28;103962;-55
2022/08/20 02:01:25;;;;;;;8.80;7.78;;;;;;;22.85;75.18;100621.94;4979828;28;103295;-55
2022/08/20 02:03:53;;;;;;;8.82;8.10;;;;;;;22.85;75.19;100621.16;4995878;28;102215;-55
2022/08/20 02:06:24;;;;;;;9.05;7.97;;;;;;;22.85;75.06;100626.69;4977411;28;102001;-55
2022/08/20 02:08:53;;;;;;;9.15;8.00;;;;;;;22.84;75.21;100620.34;4976438;28;103974;-55
2022/08/20 02:11:21;;;;;;;10.50;7.97;;;;;;;22.85;75.16;100618.38;4977256;28;102145;-55
2022/08/20 02:13:51;;;;;;;9.45;7.15;;;;;;;22.85;75.14;100626.69;4976425;28;102203;-55
2022/08/20 02:16:21;;;;;;;8.05;7.35;;;;;;;22.84;75.31;100633.41;4977262;28;102267;-55
2022/08/20 02:18:53;;;;;;;8.73;7.82;;;;;;;22.85;75.20;100635.00;4976334;28;103913;-55
2022/08/20 02:21:21;;;;;;;8.95;8.05;;;;;;;22.84;75.27;100625.09;4976727;28;102140;-55
2022/08/20 02:23:47;;;;;;;10.33;8.03;;;;;;;22.84;75.15;100630.63;4976216;28;102245;-55
2022/08/20 02:26:17;;;;;;;8.77;7.68;;;;;;;22.84;75.24;100636.19;4977843;28;102604;-55
2022/08/20 02:28:47;;;;;;;8.15;7.35;;;;;;;22.83;75.18;100629.84;4975934;28;104123;-55
2022/08/20 02:31:14;;;;;;;9.23;8.32;;;;;;;22.83;75.02;100640.09;4976741;28;102297;-55
2022/08/20 02:33:43;;;;;;;8.88;7.78;;;;;;;22.83;75.22;100646.47;4958719;28;102027;-55
2022/08/20 02:36:11;;;;;;;9.10;8.20;;;;;;;22.84;75.26;100647.28;4961209;28;102395;-55
2022/08/20 02:38:38;;;;;;;9.32;8.43;;;;;;;22.83;75.07;100640.09;4976245;28;103935;-55
2022/08/20 02:41:05;;;;;;;8.27;7.43;;;;;;;22.83;75.20;100648.44;4976634;28;102853;-55
2022/08/20 02:43:31;;;;;;;9.55;8.65;;;;;;;22.83;75.08;100645.66;4967492;28;102328;-55
2022/08/20 02:45:58;;;;;;;9.43;8.48;;;;;;;22.82;75.10;100644.06;4958100;28;102004;-55
2022/08/20 02:48:26;;;;;;;9.65;8.82;;;;;;;22.82;75.18;100641.28;4964402;28;104055;-55
2022/08/20 02:50:57;;;;;;;8.10;7.30;;;;;;;22.83;75.23;100645.66;4976545;28;102392;-55
2022/08/20 02:53:24;;;;;;;8.85;7.80;;;;;;;22.83;75.12;100645.66;4976097;28;102194;-55
2022/08/20 02:55:50;;;;;;;7.88;7.18;;;;;;;22.83;75.28;100651.19;4980160;28;102377;-54
2022/08/20 02:58:18;;;;;;;9.15;7.43;;;;;;;22.82;75.22;100650.41;4979250;28;104339;-54
2022/08/20 03:00:45;;;;;;;8.13;7.43;;;;;;;22.83;75.21;100649.25;4980267;28;102400;-55
2022/08/20 03:03:14;;;;;;;8.10;7.47;;;;;;;22.83;75.22;100651.19;4979645;28;102180;-55
2022/08/20 03:05:43;;;;;;;8.23;7.53;;;;;;;22.81;75.14;100643.25;4979509;28;102153;-55
2022/08/20 03:08:13;;;;;;;9.10;8.20;;;;;;;22.82;75.18;100647.63;4975158;28;104007;-55
2022/08/20 03:10:42;;;;;;;9.43;8.52;;;;;;;22.81;75.21;100648.78;4999745;28;102195;-55
2022/08/20 03:13:12;;;;;;;8.50;7.72;;;;;;;22.82;75.22;100644.84;4997550;28;102411;-56
2022/08/20 03:15:42;;;;;;;8.25;7.45;;;;;;;22.82;75.13;100649.59;5000057;28;102022;-55
2022/08/20 03:18:09;;;;;;;7.90;7.20;;;;;;;22.81;75.15;100653.53;4998428;28;104016;-55
2022/08/20 03:20:36;;;;;;;8.60;7.85;;;;;;;22.81;75.23;100659.09;5000032;28;102495;-55
2022/08/20 03:23:03;;;;;;;8.80;7.63;;;;;;;22.80;75.42;100663.84;4987674;28;102314;-55
2022/08/20 03:25:32;;;;;;;8.93;7.78;;;;;;;22.81;75.23;100659.09;4980289;28;102377;-55
2022/08/20 03:27:58;;;;;;;7.80;6.93;;;;;;;22.81;75.27;100664.63;4978902;28;104087;-55
2022/08/20 03:30:28;;;;;;;8.73;7.93;;;;;;;22.79;75.31;100657.50;4979698;28;101917;-55
2022/08/20 03:32:55;;;;;;;8.60;7.90;;;;;;;22.80;75.33;100663.84;4978611;28;102218;-55
2022/08/20 03:35:23;;;;;;;9.23;7.13;;;;;;;22.79;75.44;100660.25;4979860;28;102184;-55
2022/08/20 03:37:50;;;;;;;8.48;7.38;;;;;;;22.81;75.29;100654.34;4977043;28;103950;-55
2022/08/20 03:40:19;;;;;;;8.73;7.82;;;;;;;22.81;75.43;100662.66;4982301;28;102379;-55
2022/08/20 03:42:48;;;;;;;8.45;7.57;;;;;;;22.81;75.25;100659.91;4986634;28;102369;-55
2022/08/20 03:45:14;;;;;;;9.15;8.25;;;;;;;22.81;75.23;100653.53;4994616;28;102214;-55
2022/08/20 03:47:42;;;;;;;7.65;6.45;;;;;;;22.81;75.25;100659.09;4962432;28;103840;-55
2022/08/20 03:50:12;;;;;;;8.25;7.45;;;;;;;22.81;75.31;100659.09;4977021;28;101875;-55
2022/08/20 03:52:39;;;;;;;8.40;7.60;;;;;;;22.78;75.35;100658.63;4963953;28;103132;-55
2022/08/20 03:55:07;;;;;;;8.23;7.43;;;;;;;22.79;75.28;100646.38;4979765;28;102311;-55
2022/08/20 03:57:35;;;;;;;7.65;7.03;;;;;;;22.81;75.36;100645.22;4977152;28;103847;-55
2022/08/20 04:00:05;;;;;;;7.95;7.20;;;;;;;22.80;75.28;100644.41;4978811;28;102049;-55
2022/08/20 04:02:32;;;;;;;8.15;7.22;;;;;;;22.81;75.27;100653.53;4970444;28;102347;-55
2022/08/20 04:04:58;;;;;;;7.75;7.05;;;;;;;22.81;75.36;100653.53;4959099;28;102153;-55
2022/08/20 04:07:26;;;;;;;8.48;7.70;;;;;;;22.81;75.25;100653.53;4957773;28;104083;-54
2022/08/20 04:09:53;;;;;;;8.70;8.00;;;;;;;22.82;75.14;100655.94;4973213;28;102329;-55
2022/08/20 04:12:21;;;;;;;8.23;7.47;;;;;;;22.82;75.28;100661.50;4978537;28;102290;-55
2022/08/20 04:14:47;;;;;;;8.23;7.05;;;;;;;22.82;75.33;100666.25;4977976;28;102176;-55
2022/08/20 04:17:17;;;;;;;8.50;7.70;;;;;;;22.83;75.29;100667.84;4978046;28;103593;-55
2022/08/20 04:19:44;;;;;;;8.20;7.40;;;;;;;22.83;75.12;100673.41;4978406;28;102392;-55
2022/08/20 04:22:14;;;;;;;8.70;7.90;;;;;;;22.84;75.24;100675.03;4978468;28;102430;-55
2022/08/20 04:24:41;;;;;;;8.38;7.55;;;;;;;22.83;75.11;100673.41;4977540;28;102272;-55
2022/08/20 04:27:09;;;;;;;7.60;6.93;;;;;;;22.83;75.14;100671.47;4958096;28;104005;-55
2022/08/20 04:29:41;;;;;;;8.02;7.22;;;;;;;22.83;75.12;100667.84;4971156;28;102325;-55
2022/08/20 04:32:08;;;;;;;7.82;7.13;;;;;;;22.83;75.30;100662.31;4977503;28;102129;-55
2022/08/20 04:34:37;;;;;;;7.60;6.90;;;;;;;22.83;75.38;100663.13;4968270;28;102599;-55
2022/08/20 04:37:05;;;;;;;7.82;7.05;;;;;;;22.83;75.23;100668.69;4977625;28;104084;-55
2022/08/20 04:39:32;;;;;;;8.33;7.20;;;;;;;22.83;75.30;100663.13;4978165;28;102302;-55
2022/08/20 04:41:58;;;;;;;8.07;7.35;;;;;;;22.84;75.07;100666.72;4977816;28;101944;-55
2022/08/20 04:44:25;;;;;;;8.55;7.78;;;;;;;22.83;75.19;100665.06;4974014;28;102308;-55
2022/08/20 04:46:51;;;;;;;7.75;6.82;;;;;;;22.84;75.25;100666.72;4966107;28;103881;-55
2022/08/20 04:49:25;;;;;;;7.65;6.95;;;;;;;22.83;75.26;100670.63;4967148;28;102047;-55
2022/08/20 04:51:53;;;;;;;7.88;7.18;;;;;;;22.82;74.86;100661.50;4958250;28;102480;-55
2022/08/20 04:54:20;;;;;;;8.35;7.53;;;;;;;22.83;75.19;100662.31;4959405;28;102434;-55
2022/08/20 04:56:47;;;;;;;8.38;7.57;;;;;;;22.84;75.11;100658.38;4959164;28;104413;-55
2022/08/20 04:59:13;;;;;;;8.73;7.82;;;;;;;22.84;75.24;100658.38;4978024;28;101991;-55
2022/08/20 05:01:40;;;;;;;9.07;8.18;;;;;;;22.84;75.28;100658.38;4970531;28;102425;-55
2022/08/20 05:04:06;;;;;;;8.63;7.70;;;;;;;22.83;75.12;100657.59;4958661;28;102205;-55
2022/08/20 05:06:33;;;;;;;12.00;7.47;;;;;;;22.84;75.16;100664.75;4973642;28;103805;-55
2022/08/20 05:09:01;;;;;;;11.25;7.60;;;;;;;22.85;75.30;100660.00;4974761;28;102193;-55
2022/08/20 05:11:28;;;;;;;8.18;7.47;;;;;;;22.83;75.16;100657.59;4977250;28;102313;-55
2022/08/20 05:13:55;;;;;;;8.23;7.45;;;;;;;22.84;75.13;100658.38;4978292;28;103575;-55
2022/08/20 05:16:23;;;;;;;9.10;7.85;;;;;;;22.84;75.18;100659.19;4976555;28;103915;-55
2022/08/20 05:18:50;;;;;;;9.95;8.43;;;;;;;22.85;75.07;100665.53;4977092;28;101819;-55
2022/08/20 05:21:17;;;;;;;9.77;8.77;;;;;;;22.85;75.21;100660.00;4958109;28;102251;-56
2022/08/20 05:23:44;;;;;;;10.48;8.55;;;;;;;22.86;75.06;100667.16;4976520;28;102281;-55
2022/08/20 05:26:14;;;;;;;8.25;7.45;;;;;;;22.85;75.08;100654.44;4976411;28;104039;-55
2022/08/20 05:28:42;;;;;;;10.57;8.20;;;;;;;22.87;75.16;100663.22;4976811;28;102348;-55
2022/08/20 05:31:09;;;;;;;8.98;8.05;;;;;;;22.86;75.00;100656.03;4975929;28;102154;-55
2022/08/20 05:33:38;;;;;;;12.23;8.13;;;;;;;22.86;74.69;100656.03;4973150;28;102139;-55
2022/08/20 05:36:05;;;;;;;9.75;7.38;;;;;;;22.88;74.84;100651.75;4976631;28;104104;-55
2022/08/20 05:38:35;;;;;;;8.75;7.95;;;;;;;22.90;75.13;100651.38;4976192;28;102319;-55
2022/08/20 05:41:03;;;;;;;9.65;8.52;;;;;;;22.88;74.64;100648.97;4969880;28;102054;-55
2022/08/20 05:43:32;;;;;;;8.73;7.93;;;;;;;22.90;74.87;100652.22;4962013;28;102469;-56
2022/08/20 05:45:59;;;;;;;9.65;8.75;;;;;;;22.91;75.15;100651.06;4957365;28;104507;-55
2022/08/20 05:48:27;;;;;;;8.98;8.05;;;;;;;22.94;74.94;100646.78;4977359;28;102393;-55
2022/08/20 05:50:54;;;;;;;8.52;7.72;;;;;;;22.93;74.88;100650.72;4977001;28;102190;-55
2022/08/20 05:53:22;;;;;;;9.52;8.63;;;;;;;22.94;74.85;100655.13;4963796;28;102670;-55
2022/08/20 05:55:49;;;;;;;8.85;8.13;;;;;;;22.94;74.55;100646.78;4967345;28;103979;-55
2022/08/20 05:58:19;;;;;;;10.73;8.35;;;;;;;22.95;74.73;100651.97;4976838;28;102437;-55
2022/08/20 06:00:48;;;;;;;9.52;8.60;;;;;;;22.98;74.67;100647.69;4976301;28;102184;-55
2022/08/20 06:06:00;;;;;;;9.02;8.23;;;;;;;22.98;74.75;100654.03;4963372;28;104318;-55
2022/08/20 06:08:27;;;;;;;9.32;8.52;;;;;;;22.99;74.47;100652.88;4984720;28;102033;-55
2022/08/20 06:10:54;;;;;;;9.18;8.30;;;;;;;23.01;74.39;100653.34;4973609;28;102025;-55
2022/08/20 06:13:21;;;;;;;10.00;8.20;;;;;;;23.02;74.40;100654.94;4973476;28;102275;-55
2022/08/20 06:15:49;;;;;;;11.90;8.38;;;;;;;23.02;74.55;100654.13;4973288;28;103814;-55
2022/08/20 06:18:16;;;;;;;9.57;8.63;;;;;;;23.02;74.45;100654.13;4957424;28;102385;-55
2022/08/20 06:20:44;;;;;;;10.07;8.88;;;;;;;23.03;74.61;100662.09;4963113;28;102132;-55
2022/08/20 06:23:11;;;;;;;10.90;9.85;;;;;;;23.05;74.59;100650.66;4963763;28;102273;-56
2022/08/20 06:25:38;;;;;;;9.82;8.85;;;;;;;23.03;74.60;100651.00;4976305;28;104051;-55
2022/08/20 06:28:05;;;;;;;9.57;8.57;;;;;;;23.05;74.36;100645.09;4975798;28;102265;-55
2022/08/20 06:30:32;;;;;;;10.83;9.70;;;;;;;23.06;74.24;100638.38;4978097;28;102892;-55
2022/08/20 06:33:00;;;;;;;10.98;9.57;;;;;;;23.06;74.66;100649.47;4964311;28;102241;-56
2022/08/20 06:35:27;;;;;;;10.07;8.20;;;;;;;23.07;74.74;100653.06;4967465;28;103598;-55
2022/08/20 06:37:53;;;;;;;11.55;8.75;;;;;;;23.08;74.46;100654.66;4978562;28;102297;-55
2022/08/20 06:40:23;;;;;;;10.70;9.13;;;;;;;23.10;74.30;100667.03;4973491;28;102267;-55
2022/08/20 06:42:50;;;;;;;12.82;9.25;;;;;;;23.09;74.11;100665.41;4971386;28;102487;-55
2022/08/20 06:45:19;;;;;;;10.27;8.75;;;;;;;23.11;74.54;100656.72;4975403;28;103916;-55
2022/08/20 06:47:46;;;;;;;9.60;8.80;;;;;;;23.13;74.01;100666.31;4969095;28;102349;-55
2022/08/20 06:50:17;;;;;;;9.82;8.93;;;;;;;23.15;73.82;100669.56;4973947;28;102537;-55
2022/08/20 06:52:45;;;;;;;13.07;9.88;;;;;;;23.16;73.71;100665.59;4979389;28;102230;-54
2022/08/20 06:55:14;;;;;;;10.52;9.52;;;;;;;23.18;73.71;100668.00;4997775;28;103966;-54
2022/08/20 06:57:42;;;;;;;11.15;10.02;;;;;;;23.18;73.58;100671.59;4979962;28;102208;-55
2022/08/20 07:00:13;;;;;;;11.30;10.30;;;;;;;23.19;73.66;100681.53;4961726;28;101992;-56
2022/08/20 07:02:40;;;;;;;11.15;9.95;;;;;;;23.19;73.46;100669.66;4973960;28;107376;-55
2022/08/20 07:05:07;;;;;;;10.85;9.75;;;;;;;23.19;73.82;100673.22;4966962;28;104194;-56
2022/08/20 07:07:36;;;;;;;10.98;9.88;;;;;;;23.19;73.73;100670.44;4969257;28;102395;-55
2022/08/20 07:10:05;;;;;;;10.73;9.52;;;;;;;23.19;73.73;100670.44;4975135;28;101984;-55
2022/08/20 07:12:35;;;;;;;11.38;10.25;;;;;;;23.20;73.89;100676.78;4978048;28;102230;-55
2022/08/20 07:15:03;;;;;;;10.43;9.43;;;;;;;23.20;73.87;100676.78;4966472;28;103801;-55
2022/08/20 07:17:29;;;;;;;11.18;9.82;;;;;;;23.21;73.57;100683.94;4962183;28;102996;-55
2022/08/20 07:19:58;;;;;;;10.63;9.52;;;;;;;23.24;73.64;100678.50;4969741;28;102145;-55
2022/08/20 07:22:24;;;;;;;9.93;8.93;;;;;;;23.22;73.64;100671.69;4976344;28;102296;-56
2022/08/20 07:24:52;;;;;;;10.38;8.73;;;;;;;23.23;73.61;100671.34;4969229;28;103907;-55
2022/08/20 07:27:22;;;;;;;13.50;10.00;;;;;;;23.24;73.79;100678.50;4973039;28;102018;-55
2022/08/20 07:32:38;;;;;;;9.90;9.02;;;;;;;23.25;73.60;100663.44;4977077;28;102278;-55
2022/08/20 07:35:07;;;;;;;10.68;9.45;;;;;;;23.27;73.59;100663.91;4964689;28;103743;-56
2022/08/20 07:37:37;;;;;;;10.68;9.73;;;;;;;23.27;73.50;100658.34;4969901;28;102260;-55
2022/08/20 07:40:08;;;;;;;10.55;9.63;;;;;;;23.30;73.43;100664.31;4968657;28;103109;-55
2022/08/20 07:42:37;;;;;;;10.75;9.65;;;;;;;23.32;73.37;100668.38;4972923;28;102167;-55
2022/08/20 07:45:05;;;;;;;10.30;9.35;;;;;;;23.32;73.44;100662.00;4975378;28;103941;-55
2022/08/20 07:47:34;;;;;;;10.90;9.93;;;;;;;23.32;73.34;100662.81;4977436;28;102458;-55
2022/08/20 07:50:01;;;;;;;10.55;9.60;;;;;;;23.32;73.48;100656.47;4971533;28;102248;-55
2022/08/20 07:52:28;;;;;;;9.48;8.55;;;;;;;23.33;73.37;100652.50;4960750;28;102209;-55
2022/08/20 07:54:54;;;;;;;10.80;9.70;;;;;;;23.34;73.47;100645.81;4975860;28;103856;-55
2022/08/20 07:57:22;;;;;;;10.88;9.77;;;;;;;23.34;73.36;100654.13;4965711;28;102121;-55
2022/08/20 07:59:49;;;;;;;10.90;9.18;;;;;;;23.34;73.33;100654.94;4975837;28;102666;-56
2022/08/20 08:02:15;;;;;;;10.70;9.80;;;;;;;23.35;73.34;100661.28;4976336;28;102321;-55
2022/08/20 08:04:42;;;;;;;9.75;8.80;;;;;;;23.34;73.40;100654.94;4971510;28;103941;-56
2022/08/20 08:07:09;;;;;;;10.50;9.40;;;;;;;23.34;73.34;100651.38;4971764;28;102375;-56
2022/08/20 08:09:37;;;;;;;9.75;8.85;;;;;;;23.34;73.42;100646.59;4976261;28;101994;-55
2022/08/20 08:12:04;;;;;;;9.82;8.93;;;;;;;23.37;73.61;100653.41;4973907;28;102398;-55
2022/08/20 08:14:33;;;;;;;11.32;9.48;;;;;;;23.36;73.54;100647.03;4975476;28;103933;-55
2022/08/20 08:17:03;;;;;;;10.63;9.63;;;;;;;23.36;73.28;100646.25;4973392;28;102167;-55
2022/08/20 08:19:37;;;;;;;10.98;9.98;;;;;;;23.35;73.48;100648.22;4972862;28;102449;-55
2022/08/20 08:22:06;;;;;;;11.02;10.07;;;;;;;23.36;73.42;100647.03;4977288;28;102240;-55
2022/08/20 08:24:33;;;;;;;10.63;9.73;;;;;;;23.36;73.23;100643.47;4974368;28;108128;-55
2022/08/20 08:26:59;;;;;;;10.45;9.38;;;;;;;23.36;73.36;100651.78;4971891;28;102618;-54
2022/08/20 08:29:26;;;;;;;10.43;9.50;;;;;;;23.36;73.45;100649.81;4975087;28;102274;-54
2022/08/20 08:31:54;;;;;;;10.32;9.43;;;;;;;23.35;73.47;100652.97;4968784;28;102483;-55
2022/08/20 08:34:24;;;;;;;11.90;10.23;;;;;;;23.35;73.45;100647.41;4957492;28;104098;-55
2022/08/20 08:36:51;;;;;;;10.82;9.70;;;;;;;23.37;73.60;100654.22;4962933;28;102561;-55
2022/08/20 08:39:17;;;;;;;10.05;9.07;;;;;;;23.38;73.55;100646.69;4961647;28;102316;-55
2022/08/20 08:41:48;;;;;;;10.57;9.68;;;;;;;23.40;73.36;100649.91;4970473;28;102115;-55
2022/08/20 08:44:22;;;;;;;10.68;9.50;;;;;;;23.40;73.37;100661.00;4957005;28;103898;-55
2022/08/20 08:46:52;;;;;;;10.93;9.65;;;;;;;23.39;73.36;100651.88;4974357;28;102667;-55
2022/08/20 08:49:23;;;;;;;9.38;8.57;;;;;;;23.38;73.31;100646.69;4978037;28;102360;-55
2022/08/20 08:51:55;;;;;;;10.10;9.18;;;;;;;23.38;73.31;100643.91;4970183;28;102543;-55
2022/08/20 08:54:24;;;;;;;10.38;9.40;;;;;;;23.39;73.38;100651.06;4973411;28;103972;-55
2022/08/20 08:56:51;;;;;;;10.82;9.70;;;;;;;23.38;73.46;100650.28;4971178;28;102182;-55
2022/08/20 08:59:20;;;;;;;23.38;11.45;;;;;;;23.53;73.14;100651.41;4988872;28;102843;-54
2022/08/20 09:01:50;;;;;;;15.05;11.50;;;;;;;23.73;72.44;100639.22;4991566;28;102507;-54
2022/08/20 09:04:20;;;;;;;14.27;10.05;;;;;;;23.80;72.36;100637.75;4972393;28;103907;-54
2022/08/20 09:06:53;;;;;;;15.07;9.77;;;;;;;23.90;71.80;100642.75;4977254;28;102425;-55
2022/08/20 09:09:23;;;;;;;25.35;11.27;;;;;;;23.93;72.16;100642.03;4979467;28;103117;-55
2022/08/20 09:11:53;;;;;;;20.00;11.30;;;;;;;24.01;71.80;100645.75;4981812;28;102258;-54
2022/08/20 09:14:20;;;;;;;14.23;10.85;;;;;;;24.07;71.49;100647.91;4971309;28;104949;-55
2022/08/20 09:16:47;;;;;;;26.80;11.63;;;;;;;23.90;71.80;100649.13;4970070;28;102272;-55
2022/08/20 09:19:13;;;;;;;18.95;11.05;;;;;;;23.77;72.52;100649.63;4993891;28;102710;-55
2022/08/20 09:21:40;;;;;;;20.23;11.90;;;;;;;23.68;72.79;100647.81;4972211;28;102194;-55
2022/08/20 09:24:08;;;;;;;25.25;12.93;;;;;;;23.62;73.32;100637.31;4968745;28;103714;-54
2022/08/20 09:26:34;;;;;;;22.77;11.15;;;;;;;23.62;73.06;100638.16;4976596;28;102010;-54
2022/08/20 09:29:01;;;;;;;14.88;11.85;;;;;;;23.60;73.01;100651.59;4978257;28;102412;-55
2022/08/20 09:31:27;;;;;;;26.63;12.23;;;;;;;23.69;72.95;100634.75;4981063;28;102382;-54
2022/08/20 09:33:54;;;;;;;17.60;11.25;;;;;;;23.87;72.10;100632.34;4966956;28;104039;-56
2022/08/20 09:36:21;;;;;;;21.10;11.40;;;;;;;23.79;73.22;100636.16;4977682;28;102267;-55
2022/08/20 09:38:47;;;;;;;29.05;12.10;;;;;;;23.77;73.06;100635.72;4970332;28;102456;-55
2022/08/20 09:41:15;;;;;;;20.48;11.75;;;;;;;23.67;73.47;100624.00;4980225;28;102825;-55
2022/08/20 09:43:41;;;;;;;20.07;11.33;;;;;;;23.63;73.35;100631.41;4976136;28;104129;-55
2022/08/20 09:46:08;;;;;;;18.25;11.55;;;;;;;23.60;73.36;100643.25;4976653;28;102205;-55
2022/08/20 09:48:35;;;;;;;16.92;11.68;;;;;;;23.59;73.53;100635.28;4976285;28;101960;-55
2022/08/20 09:51:02;;;;;;;21.13;12.45;;;;;;;23.56;73.50;100642.38;4972264;28;102229;-55
2022/08/20 09:53:29;;;;;;;18.50;11.68;;;;;;;23.56;73.71;100634.03;4974451;28;104524;-55
2022/08/20 09:55:57;;;;;;;16.77;10.93;;;;;;;23.53;73.55;100637.53;4974453;28;102243;-55
2022/08/20 09:58:34;;;;;;;16.80;12.10;;;;;;;23.53;73.61;100647.84;4959561;28;102223;-55
2022/08/20 10:01:05;;;;;;;18.52;11.85;;;;;;;23.52;73.48;100644.25;4971944;28;102150;-55
2022/08/20 10:03:32;;;;;;;16.63;12.00;;;;;;;23.49;73.70;100640.22;4974682;28;103894;-55
2022/08/20 10:05:58;;;;;;;19.98;12.52;;;;;;;23.49;73.63;100642.19;4976181;28;102284;-55
2022/08/20 10:08:26;;;;;;;17.48;12.68;;;;;;;23.50;73.74;100632.69;4975259;28;102325;-53
2022/08/20 10:10:53;;;;;;;13.60;12.40;;;;;;;23.49;73.71;100637.44;4976775;28;102333;-54
2022/08/20 10:13:20;;;;;;;13.30;11.93;;;;;;;23.48;73.75;100632.25;4970451;28;103783;-55
2022/08/20 10:15:48;;;;;;;15.75;12.88;;;;;;;23.48;73.86;100629.50;4970920;28;102652;-56
2022/08/20 10:18:14;;;;;;;14.53;11.60;;;;;;;23.46;73.83;100629.03;4964520;28;102287;-55
2022/08/20 10:20:41;;;;;;;15.52;11.98;;;;;;;23.44;73.64;100626.63;4977456;28;102158;-54
2022/08/20 10:23:07;;;;;;;16.98;11.55;;;;;;;23.45;73.56;100622.69;4974490;28;103987;-54
2022/08/20 10:25:34;;;;;;;16.40;11.68;;;;;;;23.46;73.66;100629.03;4972492;28;102746;-55
2022/08/20 10:28:01;;;;;;;13.60;11.43;;;;;;;23.44;73.52;100617.47;4976042;28;102231;-54
2022/08/20 10:30:27;;;;;;;13.82;11.82;;;;;;;23.43;73.65;100626.97;4974864;28;102606;-54
2022/08/20 10:32:55;;;;;;;16.45;13.02;;;;;;;23.44;73.69;100620.25;4961549;28;103943;-54
2022/08/20 10:35:22;;;;;;;13.43;11.18;;;;;;;23.44;73.59;100611.91;4956839;28;101981;-54
2022/08/20 10:37:49;;;;;;;11.73;10.63;;;;;;;23.45;73.59;100608.00;4973982;28;102404;-54
2022/08/20 10:40:16;;;;;;;11.93;10.32;;;;;;;23.43;73.61;100608.34;4977092;28;102439;-54
2022/08/20 10:42:42;;;;;;;13.75;11.13;;;;;;;23.44;73.74;100614.69;4975680;28;104129;-54
2022/08/20 10:45:10;;;;;;;12.40;10.98;;;;;;;23.41;73.80;100607.91;4957209;28;102146;-55
2022/08/20 10:47:37;;;;;;;12.43;10.70;;;;;;;23.41;73.47;100604.31;4964555;28;102249;-55
2022/08/20 10:50:09;;;;;;;14.98;11.00;;;;;;;23.40;73.80;100606.28;4976917;28;102302;-55
2022/08/20 10:52:36;;;;;;;13.65;12.20;;;;;;;23.38;73.59;100591.97;4958600;28;103697;-55
2022/08/20 10:55:03;;;;;;;13.43;11.27;;;;;;;23.39;73.82;100598.31;4979280;28;102249;-55
2022/08/20 10:57:32;;;;;;;12.60;11.35;;;;;;;23.37;73.82;100598.69;4973111;28;102475;-54
2022/08/20 10:59:59;;;;;;;14.47;11.30;;;;;;;23.36;74.11;100596.25;4976838;28;102480;-55
2022/08/20 11:02:26;;;;;;;12.35;11.00;;;;;;;23.34;74.21;100593.84;4974665;28;103963;-55
2022/08/20 11:04:53;;;;;;;13.40;12.02;;;;;;;23.34;74.20;100593.06;4968511;28;102310;-55
2022/08/20 11:07:24;;;;;;;13.05;11.75;;;;;;;23.32;74.00;100593.41;4986485;28;102677;-55
2022/08/20 11:09:51;;;;;;;12.50;11.27;;;;;;;23.32;74.21;100589.81;4976376;28;102212;-55
2022/08/20 11:12:20;;;;;;;12.05;10.95;;;;;;;23.31;74.10;100585.44;4975098;28;103945;-55
2022/08/20 11:14:49;;;;;;;12.68;11.35;;;;;;;23.31;74.15;100577.91;4975496;28;102359;-55
2022/08/20 11:17:18;;;;;;;12.95;11.38;;;;;;;23.31;74.11;100577.09;4978298;28;101983;-55
2022/08/20 11:19:45;;;;;;;12.00;10.70;;;;;;;23.30;73.87;100573.53;4971798;28;102251;-55
2022/08/20 11:22:12;;;;;;;13.15;11.85;;;;;;;23.32;73.98;100575.94;4959004;28;104004;-55